Time;durP1;ratioP1;P1;durP2;ratioP2;P2;SDS_P1;SDS_P2;PMS_P1;PMS_P2;Temp;Humidity;BMP_temperature;BMP_pressure;BME280_temperature;BME280_humidity;BME280_pressure;Samples;Min_cycle;Max_cycle;Signal;HPM_P1;HPM_P2
2023/09/06 00:01:07;;;;;;;3.27;3.17;;;;;;;17.80;80.06;101604.13;5035625;28;20234;-70
2023/09/06 00:03:36;;;;;;;2.70;2.70;;;;;;;17.78;80.02;101602.59;5035588;28;20191;-70
2023/09/06 00:06:04;;;;;;;3.13;3.03;;;;;;;17.80;80.28;101606.84;5034885;28;20194;-70
2023/09/06 00:08:34;;;;;;;4.73;3.60;;;;;;;17.74;80.59;101604.81;5035997;28;20416;-70
2023/09/06 00:11:04;;;;;;;4.47;2.97;;;;;;;17.73;80.67;101607.72;5035370;28;20200;-70
2023/09/06 00:13:32;;;;;;;4.13;4.03;;;;;;;17.70;80.85;101606.19;5035441;28;20579;-70
2023/09/06 00:16:00;;;;;;;3.53;3.47;;;;;;;17.70;81.39;101602.66;5035392;28;20536;-70
2023/09/06 00:18:27;;;;;;;3.40;3.30;;;;;;;17.70;81.39;101599.94;5035469;28;20212;-70
2023/09/06 00:20:54;;;;;;;2.70;2.70;;;;;;;17.69;81.51;101601.84;5035260;28;20183;-70
2023/09/06 00:23:21;;;;;;;3.33;3.13;;;;;;;17.71;81.44;101601.63;5035250;28;20364;-70
2023/09/06 00:25:47;;;;;;;8.87;2.90;;;;;;;17.64;81.55;101592.56;5035213;28;20188;-70
2023/09/06 00:28:13;;;;;;;3.90;3.63;;;;;;;17.60;81.83;101597.47;5035317;28;20246;-70
2023/09/06 00:30:44;;;;;;;3.07;2.90;;;;;;;17.62;81.76;101595.44;5035638;28;20635;-70
2023/09/06 00:33:11;;;;;;;4.23;4.13;;;;;;;17.56;81.65;101603.38;5035270;28;20663;-70
2023/09/06 00:35:41;;;;;;;3.50;3.47;;;;;;;17.51;81.94;101606.59;5034939;28;20211;-70
2023/09/06 00:38:07;;;;;;;3.07;2.93;;;;;;;17.51;82.07;101600.34;5033653;28;20201;-70
2023/09/06 00:40:37;;;;;;;3.27;3.20;;;;;;;17.53;82.04;101601.00;5033670;28;20196;-70
2023/09/06 00:43:06;;;;;;;2.97;2.97;;;;;;;17.54;82.29;101600.00;5035434;28;20631;-70
2023/09/06 00:45:39;;;;;;;2.93;2.93;;;;;;;17.54;82.18;101600.00;5033585;28;20230;-70
2023/09/06 00:48:07;;;;;;;3.67;3.67;;;;;;;17.52;82.18;101602.88;5034988;28;20200;-70
2023/09/06 00:50:35;;;;;;;2.60;2.60;;;;;;;17.46;82.21;101606.28;5033445;28;20200;-70
2023/09/06 00:53:09;;;;;;;2.70;2.70;;;;;;;17.43;82.59;101609.34;5033281;28;20220;-70
2023/09/06 00:55:37;;;;;;;3.20;3.10;;;;;;;17.41;82.41;101611.38;5034894;28;20176;-70
2023/09/06 00:58:05;;;;;;;3.00;3.00;;;;;;;17.37;82.27;101607.31;5033242;28;20200;-70
2023/09/06 01:00:33;;;;;;;2.73;2.67;;;;;;;17.34;82.53;101608.53;5034684;28;20172;-70
2023/09/06 01:02:59;;;;;;;3.37;3.37;;;;;;;17.34;82.38;101600.41;5033209;28;20184;-70
2023/09/06 01:05:31;;;;;;;3.70;3.50;;;;;;;17.30;82.81;101609.91;5034376;28;20194;-70
2023/09/06 01:08:03;;;;;;;3.70;3.60;;;;;;;17.24;82.75;101610.56;5034324;28;20187;-70
2023/09/06 01:10:29;;;;;;;3.97;3.77;;;;;;;17.22;82.93;101601.81;5034626;28;20184;-70
2023/09/06 01:12:56;;;;;;;3.57;3.50;;;;;;;17.24;83.03;101613.28;5034215;28;20211;-70
2023/09/06 01:15:22;;;;;;;4.03;3.93;;;;;;;17.22;83.07;101607.22;5034202;28;20188;-70
2023/09/06 01:17:50;;;;;;;3.53;3.50;;;;;;;17.17;82.93;101609.59;5032032;28;20196;-70
2023/09/06 01:20:27;;;;;;;3.60;3.40;;;;;;;17.15;83.25;101613.47;5034120;28;20246;-70
2023/09/06 01:23:33;;;;;;;4.17;4.03;;;;;;;17.08;83.49;101620.59;5032835;28;20275;-70
2023/09/06 01:26:01;;;;;;;4.43;3.90;;;;;;;17.04;83.76;101620.09;5027141;28;20253;-70
2023/09/06 01:28:28;;;;;;;3.77;3.50;;;;;;;17.04;83.71;101620.09;5032656;28;20768;-70
2023/09/06 01:30:55;;;;;;;3.23;3.13;;;;;;;17.05;83.56;101619.09;5033920;28;20203;-70
2023/09/06 01:33:22;;;;;;;3.73;3.73;;;;;;;16.98;82.89;101620.75;5033811;28;20211;-70
2023/09/06 01:35:49;;;;;;;4.57;4.47;;;;;;;16.86;83.27;101627.53;5034144;28;20194;-70
2023/09/06 01:38:16;;;;;;;4.40;3.80;;;;;;;16.82;83.54;101626.19;5033808;28;20203;-70
2023/09/06 01:40:43;;;;;;;3.13;3.13;;;;;;;16.81;83.68;101624.50;5034309;28;20191;-70
2023/09/06 01:43:10;;;;;;;3.63;3.53;;;;;;;16.82;83.96;101631.59;5033999;28;20245;-70
2023/09/06 01:45:38;;;;;;;3.37;3.37;;;;;;;16.84;84.05;101630.44;5034002;28;20210;-70
2023/09/06 01:48:04;;;;;;;4.10;4.10;;;;;;;16.85;84.18;101629.38;5033583;28;20195;-70
2023/09/06 01:50:31;;;;;;;3.70;3.47;;;;;;;16.86;83.71;101622.97;5032355;28;20342;-70
2023/09/06 01:52:57;;;;;;;4.10;4.00;;;;;;;16.81;83.89;101630.75;5034060;28;20610;-70
2023/09/06 01:55:24;;;;;;;4.40;4.17;;;;;;;16.76;83.77;101632.28;5032278;28;20200;-70
2023/09/06 01:57:50;;;;;;;4.00;3.80;;;;;;;16.76;83.85;101635.00;5033483;28;20192;-71
2023/09/06 02:00:31;;;;;;;3.87;3.77;;;;;;;16.68;84.59;101629.56;5032127;28;20208;-71
2023/09/06 02:02:59;;;;;;;4.40;4.20;;;;;;;16.68;84.39;101633.13;5033730;28;20172;-71
2023/09/06 02:05:26;;;;;;;4.93;4.00;;;;;;;16.73;84.22;101633.47;5033721;28;20184;-71
2023/09/06 02:07:52;;;;;;;3.97;3.87;;;;;;;16.64;84.78;101644.41;5032083;28;20726;-71
2023/09/06 02:10:21;;;;;;;4.87;4.57;;;;;;;16.57;84.76;101633.47;5032055;28;20211;-71
2023/09/06 02:12:47;;;;;;;4.10;3.77;;;;;;;16.54;84.97;101638.31;5033512;28;20270;-71
2023/09/06 02:15:14;;;;;;;3.53;3.53;;;;;;;16.53;84.63;101642.03;5033861;28;20509;-71
2023/09/06 02:17:42;;;;;;;3.43;3.43;;;;;;;16.52;85.30;101632.25;5032039;28;20214;-71
2023/09/06 02:20:13;;;;;;;3.33;3.33;;;;;;;16.52;85.32;101645.75;5032551;28;20310;-70
2023/09/06 02:22:43;;;;;;;2.87;2.87;;;;;;;16.52;85.20;101649.28;5033227;28;20526;-70
2023/09/06 02:25:12;;;;;;;3.27;3.27;;;;;;;16.50;85.20;101639.69;5031959;28;20195;-70
2023/09/06 02:27:40;;;;;;;3.20;3.20;;;;;;;16.48;84.89;101644.38;5033469;28;20198;-70
2023/09/06 02:30:07;;;;;;;3.00;3.00;;;;;;;16.43;85.21;101637.63;5039519;28;20211;-70
2023/09/06 02:32:34;;;;;;;2.90;2.80;;;;;;;16.41;85.28;101639.69;5038395;28;20749;-70
2023/09/06 02:35:02;;;;;;;2.97;2.87;;;;;;;16.40;85.26;101647.94;5038452;28;20211;-70
2023/09/06 02:37:29;;;;;;;3.13;3.03;;;;;;;16.37;84.71;101648.28;5038492;28;20582;-70
2023/09/06 02:39:55;;;;;;;2.90;2.90;;;;;;;16.34;85.03;101649.44;5039550;28;20207;-70
2023/09/06 02:42:23;;;;;;;3.67;3.50;;;;;;;16.33;85.12;101650.47;5039888;28;20199;-70
2023/09/06 02:44:50;;;;;;;3.70;3.50;;;;;;;16.34;85.10;101652.13;5038320;28;20238;-70
2023/09/06 02:47:17;;;;;;;3.13;2.93;;;;;;;16.32;85.16;101651.47;5040156;28;20187;-70
2023/09/06 02:49:45;;;;;;;3.80;3.70;;;;;;;16.31;85.09;101655.16;5038225;28;20641;-70
2023/09/06 02:52:20;;;;;;;3.47;3.47;;;;;;;16.28;85.19;101649.25;5039709;28;20214;-70
2023/09/06 02:54:47;;;;;;;4.00;4.00;;;;;;;16.26;85.14;101646.72;5039866;28;20582;-71
2023/09/06 02:57:18;;;;;;;4.00;3.80;;;;;;;16.22;85.39;101650.75;5040055;28;20194;-71
2023/09/06 02:59:44;;;;;;;4.23;3.90;;;;;;;16.19;85.44;101659.19;5039979;28;20211;-70
2023/09/06 03:02:12;;;;;;;3.07;2.97;;;;;;;16.19;85.48;101655.66;5039495;28;20263;-70
2023/09/06 03:04:40;;;;;;;3.97;3.77;;;;;;;16.15;85.27;101655.16;5038172;28;20194;-70
2023/09/06 03:07:08;;;;;;;3.90;3.87;;;;;;;16.13;85.71;101656.28;5038142;28;20224;-70
2023/09/06 03:09:38;;;;;;;4.07;3.97;;;;;;;16.13;85.68;101657.16;5038094;28;20266;-70
2023/09/06 03:12:14;;;;;;;3.97;3.70;;;;;;;16.14;85.75;101661.53;5038521;28;20606;-70
2023/09/06 03:14:48;;;;;;;6.57;3.57;;;;;;;16.13;85.93;101665.25;5038673;28;20282;-70
2023/09/06 03:17:18;;;;;;;4.20;3.80;;;;;;;16.13;85.83;101651.75;5038140;28;20270;-71
2023/09/06 03:19:48;;;;;;;3.60;3.60;;;;;;;16.12;85.93;101655.47;5038831;28;20253;-71
2023/09/06 03:22:15;;;;;;;3.90;3.80;;;;;;;16.07;86.05;101663.22;5039207;28;20732;-71
2023/09/06 03:24:43;;;;;;;3.43;3.43;;;;;;;16.05;85.97;101664.38;5037958;28;20668;-71
2023/09/06 03:27:16;;;;;;;4.53;4.30;;;;;;;16.06;85.64;101655.28;5037974;28;20187;-71
2023/09/06 03:29:46;;;;;;;7.53;3.90;;;;;;;16.08;86.01;101658.66;5038161;28;20675;-70
2023/09/06 03:32:12;;;;;;;4.47;4.37;;;;;;;16.08;86.17;101664.06;5037799;28;20708;-70
2023/09/06 03:34:40;;;;;;;4.13;4.03;;;;;;;16.08;86.02;101664.06;5037891;28;20230;-70
2023/09/06 03:37:10;;;;;;;4.70;4.50;;;;;;;16.10;86.18;101664.72;5037862;28;20234;-70
2023/09/06 03:39:42;;;;;;;4.10;4.10;;;;;;;16.09;86.29;101661.19;5037881;28;20214;-70
2023/09/06 03:42:09;;;;;;;4.93;4.83;;;;;;;16.09;86.33;101665.72;5035782;28;20295;-70
2023/09/06 03:44:37;;;;;;;5.17;4.77;;;;;;;16.07;86.48;101663.22;5036497;28;20207;-70
2023/09/06 03:47:06;;;;;;;5.10;4.90;;;;;;;16.08;86.65;101670.31;5034643;28;20192;-70
2023/09/06 03:49:35;;;;;;;5.10;4.80;;;;;;;16.10;86.53;101667.44;5035781;28;20243;-70
2023/09/06 03:52:05;;;;;;;5.73;5.43;;;;;;;16.08;86.77;101670.31;5035706;28;20200;-70
2023/09/06 03:54:34;;;;;;;4.83;4.73;;;;;;;16.07;86.73;101668.63;5034508;28;20208;-70
2023/09/06 03:57:04;;;;;;;4.83;4.73;;;;;;;16.10;86.75;101672.81;5035973;28;20187;-70
2023/09/06 03:59:35;;;;;;;7.20;5.07;;;;;;;16.07;86.71;101667.75;5034620;28;20219;-72
2023/09/06 04:02:07;;;;;;;4.70;4.37;;;;;;;16.05;86.63;101665.22;5034396;28;20188;-71
2023/09/06 04:04:34;;;;;;;4.20;4.20;;;;;;;16.00;86.77;101667.56;5034650;28;20612;-71
2023/09/06 04:07:02;;;;;;;6.10;6.00;;;;;;;15.97;86.57;101671.44;5034320;28;20196;-71
2023/09/06 04:09:37;;;;;;;6.17;5.93;;;;;;;15.93;86.94;101677.31;5035611;28;20220;-69
2023/09/06 04:12:07;;;;;;;6.73;6.23;;;;;;;15.88;86.71;101674.25;5034138;28;20183;-69
2023/09/06 04:14:38;;;;;;;6.07;5.33;;;;;;;15.90;86.92;101672.25;5034480;28;20678;-69
2023/09/06 04:17:07;;;;;;;5.70;5.27;;;;;;;15.91;87.09;101669.38;5034150;28;20569;-69
2023/09/06 04:19:36;;;;;;;6.93;6.33;;;;;;;15.87;87.50;101672.59;5033972;28;20691;-69
2023/09/06 04:22:03;;;;;;;11.93;5.27;;;;;;;15.85;87.67;101674.59;5034008;28;20195;-72
2023/09/06 04:24:35;;;;;;;6.47;6.23;;;;;;;15.85;87.87;101677.28;5033926;28;20184;-72
2023/09/06 04:27:04;;;;;;;8.57;6.70;;;;;;;15.86;88.40;101676.28;5035390;28;20322;-72
2023/09/06 04:29:31;;;;;;;6.33;6.00;;;;;;;15.86;87.79;101677.16;5033826;28;20287;-72
2023/09/06 04:31:58;;;;;;;5.57;5.27;;;;;;;15.86;87.98;101673.59;5033759;28;20205;-72
2023/09/06 04:34:26;;;;;;;6.03;5.83;;;;;;;15.87;88.53;101678.81;5034288;28;20202;-72
2023/09/06 04:36:53;;;;;;;6.10;5.60;;;;;;;15.88;88.28;101676.97;5033742;28;20194;-72
2023/09/06 04:39:20;;;;;;;7.30;6.80;;;;;;;15.86;88.44;101687.94;5033581;28;20211;-72
2023/09/06 04:41:46;;;;;;;7.80;6.87;;;;;;;15.84;89.13;101692.63;5034912;28;20184;-72
2023/09/06 04:44:13;;;;;;;8.10;7.53;;;;;;;15.85;88.73;101693.47;5034825;28;20188;-72
2023/09/06 04:46:39;;;;;;;8.13;7.33;;;;;;;15.86;88.75;101687.94;5033544;28;20199;-72
2023/09/06 04:49:07;;;;;;;7.27;6.93;;;;;;;15.94;89.22;101692.50;5033422;28;20212;-72
2023/09/06 04:51:33;;;;;;;9.90;6.80;;;;;;;15.94;88.97;101692.50;5033253;28;20659;-72
2023/09/06 04:54:02;;;;;;;10.37;7.50;;;;;;;15.97;88.91;101690.31;5034329;28;20239;-72
2023/09/06 04:56:33;;;;;;;8.07;7.60;;;;;;;16.00;89.35;101699.94;5033468;28;20188;-73
2023/09/06 04:58:59;;;;;;;7.10;6.77;;;;;;;16.08;88.82;101699.97;5033291;28;20626;-72
2023/09/06 05:01:26;;;;;;;10.80;6.47;;;;;;;16.09;88.92;101698.09;5033239;28;20192;-72
2023/09/06 05:03:53;;;;;;;7.57;7.07;;;;;;;16.08;88.53;101699.97;5033206;28;20195;-72
2023/09/06 05:06:20;;;;;;;6.87;6.43;;;;;;;16.09;89.03;101704.34;5033952;28;20199;-72
2023/09/06 05:08:47;;;;;;;10.17;6.50;;;;;;;16.13;89.12;101708.41;5034309;28;20204;-72
2023/09/06 05:11:20;;;;;;;5.60;5.40;;;;;;;16.17;88.92;101707.06;5033075;28;20651;-72
2023/09/06 05:13:49;;;;;;;7.30;6.60;;;;;;;16.18;89.16;101706.06;5032845;28;20235;-72
2023/09/06 05:16:17;;;;;;;7.47;7.00;;;;;;;16.23;89.00;101711.81;5032945;28;20187;-72
2023/09/06 05:18:43;;;;;;;5.90;5.70;;;;;;;16.22;89.21;101710.13;5032818;28;20220;-72
2023/09/06 05:21:13;;;;;;;7.33;6.83;;;;;;;16.26;88.80;101705.25;5032878;28;20679;-73
2023/09/06 05:23:40;;;;;;;7.40;6.80;;;;;;;16.34;88.66;101707.94;5032788;28;20604;-73
2023/09/06 05:26:10;;;;;;;6.43;6.20;;;;;;;16.36;88.65;101714.03;5033020;28;20599;-73
2023/09/06 05:28:42;;;;;;;6.63;6.13;;;;;;;16.37;89.06;101715.75;5032660;28;20223;-72
2023/09/06 05:31:09;;;;;;;6.17;5.97;;;;;;;16.42;88.40;101721.50;5032672;28;20202;-73
2023/09/06 05:33:38;;;;;;;6.70;6.30;;;;;;;16.44;88.49;101720.31;5033832;28;20199;-73
2023/09/06 05:36:08;;;;;;;6.53;6.20;;;;;;;16.49;88.40;101729.75;5032600;28;20219;-73
2023/09/06 05:38:35;;;;;;;8.60;6.90;;;;;;;16.54;88.63;101727.41;5033684;28;20207;-72
2023/09/06 05:41:03;;;;;;;7.50;6.87;;;;;;;16.62;88.57;101733.72;5033368;28;20204;-73
2023/09/06 05:43:34;;;;;;;10.57;6.20;;;;;;;16.69;88.51;101732.03;5033379;28;20176;-73
2023/09/06 05:46:00;;;;;;;14.57;5.83;;;;;;;16.79;88.57;101729.16;5034297;28;20550;-73
2023/09/06 05:48:27;;;;;;;6.73;5.73;;;;;;;16.82;87.99;101735.06;5033577;28;20200;-72
2023/09/06 05:50:55;;;;;;;6.07;5.87;;;;;;;16.88;87.77;101733.56;5032410;28;20598;-72
2023/09/06 05:53:23;;;;;;;7.20;6.60;;;;;;;16.96;87.80;101736.28;5032191;28;20219;-72
2023/09/06 05:55:50;;;;;;;6.13;5.63;;;;;;;17.04;87.37;101733.56;5032280;28;20199;-72
2023/09/06 05:58:17;;;;;;;6.63;6.30;;;;;;;17.14;87.30;101738.81;5032192;28;20219;-72
2023/09/06 06:00:43;;;;;;;6.13;5.70;;;;;;;17.24;86.94;101737.59;5032286;28;20604;-72
2023/09/06 06:03:10;;;;;;;6.67;6.43;;;;;;;17.34;86.29;101734.72;5032970;28;20188;-72
2023/09/06 06:05:37;;;;;;;6.00;5.70;;;;;;;17.46;86.39;101740.63;5033439;28;20196;-72
2023/09/06 06:08:03;;;;;;;6.93;6.37;;;;;;;17.54;85.76;101737.88;5033611;28;20190;-72
2023/09/06 06:10:34;;;;;;;7.70;5.87;;;;;;;17.66;85.77;101734.69;5033353;28;20188;-72
2023/09/06 06:13:03;;;;;;;7.57;6.83;;;;;;;17.75;84.68;101738.22;5033139;28;20302;-72
2023/09/06 06:15:30;;;;;;;6.30;5.80;;;;;;;17.86;83.71;101737.00;5033208;28;20213;-72
2023/09/06 06:17:56;;;;;;;6.67;6.33;;;;;;;17.93;83.29;101746.94;5033147;28;20659;-71
2023/09/06 06:20:22;;;;;;;10.87;6.80;;;;;;;18.03;82.96;101749.47;5033184;28;20192;-71
2023/09/06 06:23:04;;;;;;;6.57;6.17;;;;;;;18.14;82.87;101752.63;5033492;28;20176;-71
2023/09/06 06:25:30;;;;;;;9.97;6.20;;;;;;;18.24;81.98;101755.13;5033208;28;20195;-71
2023/09/06 06:27:56;;;;;;;6.70;6.03;;;;;;;18.34;82.13;101754.88;5033582;28;20238;-71
2023/09/06 06:30:23;;;;;;;18.40;6.83;;;;;;;18.40;82.06;101752.31;5033685;28;20242;-71
2023/09/06 06:32:49;;;;;;;6.37;5.93;;;;;;;18.48;81.06;101754.13;5033059;28;20204;-72
2023/09/06 06:35:16;;;;;;;6.40;6.03;;;;;;;18.59;81.67;101760.00;5033069;28;20187;-72
2023/09/06 06:37:42;;;;;;;9.80;6.30;;;;;;;18.71;80.79;101757.75;5033562;28;20204;-70
2023/09/06 06:40:09;;;;;;;7.93;5.53;;;;;;;18.82;80.60;101756.47;5032964;28;20214;-69
2023/09/06 06:42:36;;;;;;;8.70;6.00;;;;;;;18.94;80.46;101755.03;5033278;28;20263;-69
2023/09/06 06:45:05;;;;;;;13.57;5.53;;;;;;;19.07;79.67;101757.97;5031966;28;20195;-69
2023/09/06 06:47:31;;;;;;;20.27;5.57;;;;;;;19.15;79.82;101750.63;5032964;28;20607;-69
2023/09/06 06:50:03;;;;;;;5.53;5.23;;;;;;;19.26;79.04;101754.78;5033164;28;20207;-69
2023/09/06 06:52:33;;;;;;;5.13;4.53;;;;;;;19.37;78.82;101753.47;5033233;28;20205;-69
2023/09/06 06:55:00;;;;;;;9.67;6.17;;;;;;;19.46;78.81;101749.69;5032932;28;20176;-69
2023/09/06 06:57:26;;;;;;;5.97;5.47;;;;;;;19.59;78.20;101760.75;5033377;28;20192;-69
2023/09/06 06:59:53;;;;;;;5.37;5.03;;;;;;;19.70;78.39;101763.00;5033357;28;20269;-69
2023/09/06 07:02:19;;;;;;;6.33;5.83;;;;;;;19.80;78.13;101765.44;5032851;28;20222;-69
2023/09/06 07:04:46;;;;;;;8.17;5.57;;;;;;;19.84;77.32;101755.91;5032827;28;20679;-70
2023/09/06 07:07:13;;;;;;;15.20;5.50;;;;;;;19.96;76.01;101760.69;5032787;28;20191;-70
2023/09/06 07:09:39;;;;;;;9.57;5.30;;;;;;;20.08;75.05;101758.31;5032682;28;20204;-70
2023/09/06 07:12:06;;;;;;;7.80;5.60;;;;;;;20.20;75.30;101756.81;5032602;28;20196;-70
2023/09/06 07:14:32;;;;;;;11.63;4.90;;;;;;;20.34;76.65;101757.84;5032672;28;20683;-70
2023/09/06 07:16:59;;;;;;;6.40;5.67;;;;;;;20.50;76.00;101763.91;5035957;28;20238;-70
2023/09/06 07:19:25;;;;;;;4.37;4.27;;;;;;;20.63;74.98;101754.22;5036343;28;20215;-69
2023/09/06 07:21:52;;;;;;;5.13;4.43;;;;;;;20.69;74.71;101761.59;5035118;28;20211;-69
2023/09/06 07:24:18;;;;;;;9.93;4.80;;;;;;;20.73;75.18;101763.75;5036625;28;20188;-69
2023/09/06 07:26:45;;;;;;;5.43;5.13;;;;;;;20.84;74.29;101767.81;5036318;28;20648;-71
2023/09/06 07:29:11;;;;;;;4.97;4.70;;;;;;;20.91;74.01;101764.16;5036168;28;20204;-69
2023/09/06 07:31:39;;;;;;;8.97;4.70;;;;;;;21.06;72.50;101763.22;5036188;28;20191;-69
2023/09/06 07:34:06;;;;;;;4.67;4.33;;;;;;;21.18;72.13;101764.41;5036095;28;20254;-69
2023/09/06 07:36:33;;;;;;;4.37;4.00;;;;;;;21.33;71.03;101770.63;5036602;28;20590;-69
2023/09/06 07:38:59;;;;;;;4.87;4.30;;;;;;;21.47;71.32;101766.13;5035968;28;20223;-69
2023/09/06 07:41:26;;;;;;;5.50;4.93;;;;;;;21.56;70.90;101765.75;5035964;28;20250;-69
2023/09/06 07:43:53;;;;;;;4.27;4.27;;;;;;;21.70;70.84;101769.44;5035962;28;20184;-69
2023/09/06 07:46:24;;;;;;;6.40;4.70;;;;;;;21.82;70.32;101774.13;5035924;28;20242;-69
2023/09/06 07:48:51;;;;;;;6.83;4.00;;;;;;;21.97;68.62;101765.88;5035875;28;20212;-69
2023/09/06 07:51:18;;;;;;;4.00;3.90;;;;;;;22.10;66.74;101771.41;5035883;28;20274;-69
2023/09/06 07:53:45;;;;;;;5.37;4.57;;;;;;;22.22;66.06;101767.06;5036349;28;20285;-70
2023/09/06 07:56:13;;;;;;;4.43;3.83;;;;;;;22.26;67.43;101773.78;5036077;28;20242;-70
2023/09/06 07:58:39;;;;;;;9.27;4.37;;;;;;;22.33;67.61;101773.78;5035984;28;20215;-70
2023/09/06 08:01:06;;;;;;;5.70;4.07;;;;;;;22.53;63.93;101769.25;5035696;28;20324;-70
2023/09/06 08:03:45;;;;;;;6.80;4.07;;;;;;;22.60;62.93;101770.13;5036207;28;20255;-69
2023/09/06 08:06:13;;;;;;;3.80;3.60;;;;;;;22.65;63.21;101774.97;5035557;28;20210;-70
2023/09/06 08:08:40;;;;;;;5.72;4.03;;;;;;;22.77;62.13;101770.63;5035481;28;20266;-69
2023/09/06 08:11:08;;;;;;;3.65;3.65;;;;;;;22.88;62.70;101777.34;5035296;28;20603;-69
2023/09/06 08:13:34;;;;;;;4.32;3.45;;;;;;;22.92;64.27;101767.69;5035269;28;20276;-69
2023/09/06 08:16:00;;;;;;;3.85;3.75;;;;;;;23.05;63.46;101768.56;5035344;28;20254;-69
2023/09/06 08:18:28;;;;;;;4.07;4.05;;;;;;;23.22;59.67;101769.00;5035542;28;20223;-69
2023/09/06 08:20:56;;;;;;;5.35;3.78;;;;;;;23.27;60.23;101763.75;5035592;28;20207;-69
2023/09/06 08:23:22;;;;;;;3.63;3.53;;;;;;;23.38;58.05;101771.28;5035298;28;20192;-69
2023/09/06 08:25:49;;;;;;;7.03;3.90;;;;;;;23.54;56.78;101765.47;5034821;28;20192;-69
2023/09/06 08:28:18;;;;;;;3.95;3.60;;;;;;;23.50;57.80;101772.41;5034936;28;20262;-69
2023/09/06 08:30:46;;;;;;;5.07;3.75;;;;;;;23.57;58.23;101770.50;5035114;28;20207;-70
2023/09/06 08:33:13;;;;;;;3.72;3.72;;;;;;;23.62;56.82;101765.25;5034984;28;20198;-70
2023/09/06 08:35:40;;;;;;;3.80;3.53;;;;;;;23.68;55.78;101769.00;5035581;28;20180;-70
2023/09/06 08:38:07;;;;;;;4.25;4.03;;;;;;;23.77;56.71;101766.88;5035179;28;20254;-69
2023/09/06 08:40:38;;;;;;;4.20;4.00;;;;;;;23.79;55.39;101772.97;5035007;28;20186;-70
2023/09/06 08:43:05;;;;;;;5.25;4.43;;;;;;;23.83;55.16;101768.78;5035428;28;20188;-70
2023/09/06 08:45:33;;;;;;;4.45;4.35;;;;;;;23.84;56.00;101760.38;5035424;28;20245;-70
2023/09/06 08:48:01;;;;;;;4.22;4.13;;;;;;;23.87;57.48;101767.28;5035106;28;20250;-69
2023/09/06 08:50:31;;;;;;;5.82;4.10;;;;;;;23.99;58.71;101768.31;5034780;28;20187;-69
2023/09/06 08:52:59;;;;;;;4.65;3.70;;;;;;;24.02;57.04;101770.59;5035313;28;20575;-69
2023/09/06 08:55:26;;;;;;;6.50;4.47;;;;;;;24.08;55.26;101759.66;5034613;28;20203;-70
2023/09/06 08:57:53;;;;;;;4.80;3.75;;;;;;;24.23;56.05;101767.63;5034571;28;20200;-70
2023/09/06 09:00:23;;;;;;;4.28;3.97;;;;;;;24.28;55.79;101764.25;5034740;28;20207;-69
2023/09/06 09:02:50;;;;;;;3.42;3.42;;;;;;;24.34;54.62;101766.13;5035185;28;20177;-70
2023/09/06 09:05:16;;;;;;;6.65;3.88;;;;;;;24.36;56.14;101762.09;5034459;28;20246;-70
2023/09/06 09:07:58;;;;;;;4.20;4.00;;;;;;;24.44;54.54;101769.25;5034447;28;20203;-70
2023/09/06 09:10:28;;;;;;;7.43;4.18;;;;;;;24.47;53.44;101766.91;5034701;28;20255;-70
2023/09/06 09:12:56;;;;;;;4.55;4.20;;;;;;;24.52;54.20;101766.25;5034449;28;20200;-70
2023/09/06 09:15:25;;;;;;;4.10;4.00;;;;;;;24.61;52.20;101762.22;5034179;28;20243;-70
2023/09/06 09:17:53;;;;;;;4.43;4.32;;;;;;;24.66;52.61;101764.25;5034491;28;20192;-70
2023/09/06 09:20:27;;;;;;;4.45;4.32;;;;;;;24.72;55.25;101769.72;5034493;28;20186;-70
2023/09/06 09:23:01;;;;;;;5.57;4.20;;;;;;;24.87;55.41;101762.06;5034390;28;20275;-70
2023/09/06 09:25:28;;;;;;;4.93;4.65;;;;;;;24.99;52.73;101770.41;5034656;28;20175;-70
2023/09/06 09:27:56;;;;;;;5.20;4.38;;;;;;;25.11;52.14;101771.38;5033949;28;20211;-69
2023/09/06 09:30:26;;;;;;;4.78;4.47;;;;;;;25.17;50.87;101770.47;5034313;28;20179;-70
2023/09/06 09:32:57;;;;;;;4.28;4.05;;;;;;;25.27;51.93;101776.31;5034205;28;20196;-70
2023/09/06 09:35:25;;;;;;;3.92;3.83;;;;;;;25.36;50.14;101763.16;5034101;28;20241;-69
2023/09/06 09:37:53;;;;;;;5.47;4.82;;;;;;;25.40;52.32;101765.25;5033355;28;20241;-70
2023/09/06 09:40:22;;;;;;;4.40;4.18;;;;;;;25.46;51.97;101763.50;5034112;28;20694;-69
2023/09/06 09:42:59;;;;;;;7.38;4.32;;;;;;;25.51;50.78;101765.56;5033826;28;20172;-70
2023/09/06 09:45:30;;;;;;;4.05;4.00;;;;;;;25.66;49.83;101774.31;5034305;28;20192;-69
2023/09/06 09:47:57;;;;;;;5.28;4.80;;;;;;;25.66;51.13;101766.94;5034196;28;20207;-68
2023/09/06 09:50:26;;;;;;;4.10;3.92;;;;;;;25.78;49.84;101761.53;5034243;28;20298;-69
2023/09/06 09:52:52;;;;;;;4.15;3.83;;;;;;;25.81;49.42;101761.06;5033639;28;20195;-69
2023/09/06 09:55:25;;;;;;;4.60;4.18;;;;;;;25.85;51.33;101759.56;5033788;28;20212;-70
2023/09/06 09:57:53;;;;;;;3.97;3.97;;;;;;;25.92;49.75;101754.84;5033798;28;20233;-69
2023/09/06 10:00:27;;;;;;;4.15;4.15;;;;;;;26.02;49.66;101757.03;5033466;28;20257;-69
2023/09/06 10:02:57;;;;;;;4.95;4.50;;;;;;;26.10;49.87;101757.56;5033741;28;20176;-70
2023/09/06 10:05:29;;;;;;;5.20;4.72;;;;;;;26.15;49.68;101751.41;5033746;28;20177;-70
2023/09/06 10:07:56;;;;;;;4.85;4.47;;;;;;;26.20;48.85;101748.84;5033262;28;20202;-69
2023/09/06 10:10:24;;;;;;;4.25;4.15;;;;;;;26.20;47.31;101749.69;5033920;28;20673;-70
2023/09/06 10:12:52;;;;;;;4.95;4.75;;;;;;;26.27;49.55;101750.44;5033190;28;20551;-70
2023/09/06 10:15:20;;;;;;;5.07;4.95;;;;;;;26.26;46.08;101743.31;5033247;28;20200;-70
2023/09/06 10:17:48;;;;;;;3.92;3.72;;;;;;;26.30;46.00;101743.69;5033845;28;20213;-70
2023/09/06 10:20:14;;;;;;;4.55;3.97;;;;;;;26.45;43.95;101738.59;5033393;28;20216;-71
2023/09/06 10:22:46;;;;;;;4.68;4.15;;;;;;;26.57;44.00;101739.50;5033232;28;20196;-70
2023/09/06 10:25:15;;;;;;;5.65;4.40;;;;;;;26.68;44.91;101732.38;5033518;28;20172;-72
2023/09/06 10:27:48;;;;;;;6.60;4.13;;;;;;;26.77;44.24;101740.06;5033430;28;20275;-70
2023/09/06 10:30:17;;;;;;;5.25;4.20;;;;;;;26.82;44.16;101737.44;5033090;28;20211;-70
2023/09/06 10:32:46;;;;;;;4.63;4.20;;;;;;;26.85;44.49;101730.69;5033781;28;20261;-71
2023/09/06 10:35:29;;;;;;;4.38;4.07;;;;;;;26.93;44.89;101733.09;5033254;28;20306;-70
2023/09/06 10:38:04;;;;;;;4.63;4.18;;;;;;;26.97;42.33;101736.19;5033546;28;20187;-70
2023/09/06 10:40:53;;;;;;;4.68;4.68;;;;;;;27.01;44.10;101734.66;5033307;28;20179;-70
2023/09/06 10:43:25;;;;;;;4.72;4.70;;;;;;;27.08;42.98;101730.72;5033030;28;20180;-70
2023/09/06 10:45:56;;;;;;;5.00;4.80;;;;;;;27.15;43.18;101733.38;5033605;28;20176;-70
2023/09/06 10:48:23;;;;;;;3.97;3.97;;;;;;;27.10;43.55;101723.09;5032894;28;20208;-70
2023/09/06 10:51:06;;;;;;;3.97;3.97;;;;;;;27.14;43.62;101731.69;5036194;28;20188;-70
2023/09/06 10:53:37;;;;;;;3.97;3.80;;;;;;;27.14;43.35;101724.28;5036873;28;20188;-73
2023/09/06 10:56:05;;;;;;;7.43;4.07;;;;;;;27.22;39.75;101718.44;5037496;28;20180;-73
2023/09/06 10:58:34;;;;;;;3.95;3.85;;;;;;;27.24;39.64;101730.00;5037471;28;20723;-72
2023/09/06 11:01:13;;;;;;;4.15;3.78;;;;;;;27.33;38.57;101721.44;5036813;28;20192;-72
2023/09/06 11:03:45;;;;;;;4.18;4.18;;;;;;;27.27;42.83;101717.75;5037252;28;20625;-72
2023/09/06 11:06:12;;;;;;;3.92;3.83;;;;;;;27.28;43.81;101722.16;5037008;28;20172;-72
2023/09/06 11:08:39;;;;;;;4.40;4.40;;;;;;;27.42;42.07;101718.09;5036585;28;20212;-72
2023/09/06 11:11:09;;;;;;;4.93;4.57;;;;;;;27.46;39.99;101716.53;5036475;28;20220;-72
2023/09/06 11:13:42;;;;;;;4.22;4.18;;;;;;;27.45;42.94;101720.38;5036490;28;20242;-72
2023/09/06 11:16:13;;;;;;;4.70;4.50;;;;;;;27.43;41.52;101714.28;5036774;28;20652;-70
2023/09/06 11:18:47;;;;;;;4.35;4.25;;;;;;;27.48;42.37;101706.19;5036483;28;20235;-71
2023/09/06 11:21:23;;;;;;;4.80;4.65;;;;;;;27.66;40.92;101702.47;5036421;28;20184;-70
2023/09/06 11:23:51;;;;;;;5.00;4.90;;;;;;;27.69;41.20;101704.72;5036998;28;20190;-70
2023/09/06 11:26:19;;;;;;;5.05;4.88;;;;;;;27.75;42.87;101705.69;5036892;28;20188;-70
2023/09/06 11:28:50;;;;;;;4.45;4.32;;;;;;;27.70;41.34;101693.50;5036212;28;20214;-70
2023/09/06 11:31:25;;;;;;;4.30;4.20;;;;;;;27.75;40.97;101702.94;5036511;28;20215;-70